createdAt,value
2019-05-18T00:02:17.452Z,7.30
2019-05-18T00:04:46.280Z,7.30
2019-05-18T00:07:16.954Z,7.20
2019-05-18T00:09:46.543Z,7.30
2019-05-18T00:12:15.707Z,7.30
2019-05-18T00:14:44.599Z,7.40
2019-05-18T00:17:24.898Z,7.30
2019-05-18T00:19:43.914Z,7.20
2019-05-18T00:22:12.915Z,7.20
2019-05-18T00:24:41.883Z,7.20
2019-05-18T00:27:10.650Z,7.20
2019-05-18T00:29:39.597Z,7.20
2019-05-18T00:32:08.698Z,7.10
2019-05-18T00:34:37.555Z,7.10
2019-05-18T00:37:06.434Z,7.10
2019-05-18T00:39:35.364Z,7.10
2019-05-18T00:42:06.116Z,7.00
2019-05-18T00:44:34.942Z,7.00
2019-05-18T00:47:04.704Z,6.90
2019-05-18T00:49:33.465Z,6.90
2019-05-18T00:52:02.461Z,6.80
2019-05-18T00:54:31.241Z,6.70
2019-05-18T00:57:00.041Z,6.60
2019-05-18T00:59:28.826Z,6.50
2019-05-18T01:01:58.119Z,6.50
2019-05-18T01:04:26.950Z,6.40
2019-05-18T01:06:55.813Z,6.40
2019-05-18T01:09:24.758Z,6.40
2019-05-18T01:11:54.643Z,6.30
2019-05-18T01:14:23.600Z,6.30
2019-05-18T01:16:52.841Z,6.30
2019-05-18T01:19:21.936Z,6.40
2019-05-18T01:21:50.833Z,6.40
2019-05-18T01:24:19.795Z,6.30
2019-05-18T01:26:48.535Z,6.20
2019-05-18T01:29:17.505Z,6.10
2019-05-18T01:31:46.206Z,6.10
2019-05-18T01:34:15.290Z,6.30
2019-05-18T01:36:44.388Z,6.20
2019-05-18T01:39:13.129Z,6.00
2019-05-18T01:41:42.169Z,5.80
2019-05-18T01:44:11.439Z,5.70
2019-05-18T01:46:40.359Z,5.60
2019-05-18T01:49:09.158Z,5.60
2019-05-18T01:51:39.348Z,5.50
2019-05-18T01:54:08.233Z,5.50
2019-05-18T01:56:37.057Z,5.40
2019-05-18T01:59:06.460Z,5.30
2019-05-18T02:01:35.411Z,5.20
2019-05-18T02:04:04.186Z,5.20
2019-05-18T02:06:33.004Z,5.10
2019-05-18T02:09:01.678Z,5.00
2019-05-18T02:11:30.919Z,5.00
2019-05-18T02:14:02.898Z,4.90
2019-05-18T02:16:31.775Z,4.90
2019-05-18T02:19:00.631Z,4.80
2019-05-18T02:21:29.500Z,4.80
2019-05-18T02:23:58.417Z,4.70
2019-05-18T02:26:27.549Z,4.80
2019-05-18T02:28:58.174Z,4.70
2019-05-18T02:31:26.979Z,4.70
2019-05-18T02:33:56.069Z,4.70
2019-05-18T02:36:25.164Z,4.60
2019-05-18T02:38:54.430Z,4.60
2019-05-18T02:41:23.561Z,4.60
2019-05-18T02:43:52.452Z,4.50
2019-05-18T02:46:21.311Z,4.50
2019-05-18T02:48:50.841Z,4.50
2019-05-18T02:51:20.155Z,4.50
2019-05-18T02:53:48.849Z,4.50
2019-05-18T02:56:17.691Z,4.50
2019-05-18T02:58:46.830Z,4.60
2019-05-18T03:01:16.037Z,4.60
2019-05-18T03:03:46.000Z,4.60
2019-05-18T03:06:14.946Z,4.60
2019-05-18T03:08:43.796Z,4.50
2019-05-18T03:11:12.538Z,4.40
2019-05-18T03:13:41.571Z,4.30
2019-05-18T03:16:10.918Z,4.20
2019-05-18T03:18:39.752Z,4.20
2019-05-18T03:21:08.699Z,4.20
2019-05-18T03:23:37.565Z,4.30
2019-05-18T03:26:06.316Z,4.40
2019-05-18T03:28:35.688Z,4.50
2019-05-18T03:31:04.432Z,4.70
2019-05-18T03:33:33.236Z,4.70
2019-05-18T03:36:02.139Z,4.60
2019-05-18T03:38:31.018Z,4.60
2019-05-18T03:41:00.057Z,4.70
2019-05-18T03:43:29.340Z,4.70
2019-05-18T03:45:58.234Z,4.70
2019-05-18T03:48:27.084Z,4.60
2019-05-18T03:50:55.978Z,4.60
2019-05-18T03:53:24.754Z,4.60
2019-05-18T03:55:53.554Z,4.60
2019-05-18T03:58:22.717Z,4.70
2019-05-18T04:00:51.449Z,4.80
2019-05-18T04:03:20.052Z,4.90
2019-05-18T04:05:48.817Z,5.00
2019-05-18T04:08:17.614Z,5.10
2019-05-18T04:10:46.260Z,5.10
2019-05-18T04:13:15.839Z,5.00
2019-05-18T04:15:44.686Z,5.00
2019-05-18T04:18:13.517Z,5.10
2019-05-18T04:20:42.941Z,5.20
2019-05-18T04:23:11.752Z,5.30
2019-05-18T04:25:43.668Z,5.60
2019-05-18T04:28:11.164Z,6.40
2019-05-18T04:30:42.548Z,7.20
2019-05-18T04:33:11.481Z,7.90
2019-05-18T04:35:40.380Z,8.60
2019-05-18T04:38:09.264Z,8.90
2019-05-18T04:40:38.120Z,9.30
2019-05-18T04:43:06.891Z,9.40
2019-05-18T04:45:35.659Z,10.00
2019-05-18T04:48:04.398Z,10.50
2019-05-18T04:50:33.398Z,10.50
2019-05-18T04:53:02.529Z,11.30
2019-05-18T04:55:31.479Z,12.20
2019-05-18T04:58:00.472Z,12.70
2019-05-18T05:00:29.494Z,13.00
2019-05-18T05:02:58.668Z,13.20
2019-05-18T05:05:27.564Z,13.30
2019-05-18T05:07:56.452Z,13.70
2019-05-18T05:10:25.235Z,13.50
2019-05-18T05:12:55.958Z,13.60
2019-05-18T05:15:24.678Z,14.20
2019-05-18T05:17:53.587Z,14.60
2019-05-18T05:20:22.302Z,15.10
2019-05-18T05:22:51.131Z,15.60
2019-05-18T05:25:19.959Z,16.10
2019-05-18T05:27:48.725Z,16.30
2019-05-18T05:30:18.699Z,16.60
2019-05-18T05:32:47.546Z,16.40
2019-05-18T05:35:17.339Z,15.90
2019-05-18T05:37:46.124Z,15.70
2019-05-18T05:40:15.253Z,15.70
2019-05-18T05:42:44.013Z,15.70
2019-05-18T05:45:13.095Z,15.80
2019-05-18T05:47:41.829Z,16.10
2019-05-18T05:50:10.908Z,16.10
2019-05-18T05:52:39.607Z,16.30
2019-05-18T05:55:09.471Z,16.00
2019-05-18T05:57:38.261Z,16.00
2019-05-18T06:00:08.979Z,16.10
2019-05-18T06:02:37.791Z,16.20
2019-05-18T06:05:07.548Z,16.60
2019-05-18T06:07:36.191Z,16.50
2019-05-18T06:10:06.333Z,16.80
2019-05-18T06:12:35.078Z,16.80
2019-05-18T06:15:05.334Z,17.00
2019-05-18T06:17:34.042Z,16.90
2019-05-18T06:20:03.220Z,16.80
2019-05-18T06:22:33.925Z,16.70
2019-05-18T06:25:03.644Z,16.50
2019-05-18T06:27:33.071Z,17.10
2019-05-18T06:30:02.149Z,17.50
2019-05-18T06:32:31.036Z,18.40
2019-05-18T06:34:59.849Z,18.90
2019-05-18T06:37:28.880Z,18.60
2019-05-18T06:39:57.636Z,18.50
2019-05-18T06:42:26.397Z,18.40
2019-05-18T06:44:55.084Z,18.40
2019-05-18T06:47:23.882Z,18.60
2019-05-18T06:49:52.664Z,18.50
2019-05-18T06:52:21.501Z,18.40
2019-05-18T06:54:50.509Z,18.60
2019-05-18T06:57:20.231Z,19.50
2019-05-18T06:59:49.529Z,19.60
2019-05-18T07:02:18.711Z,20.30
2019-05-18T07:04:47.509Z,20.80
2019-05-18T07:07:16.260Z,20.70
2019-05-18T07:09:44.997Z,21.00
2019-05-18T07:12:22.697Z,21.30
2019-05-18T07:14:51.543Z,21.60
2019-05-18T07:17:20.342Z,21.90
2019-05-18T07:19:49.176Z,22.00
2019-05-18T07:22:18.150Z,22.60
2019-05-18T07:24:46.881Z,22.40
2019-05-18T07:27:15.797Z,20.80
2019-05-18T07:29:44.629Z,20.20
2019-05-18T07:32:13.397Z,20.10
2019-05-18T07:34:42.259Z,20.30
2019-05-18T07:37:11.355Z,20.70
2019-05-18T07:39:41.898Z,21.10
2019-05-18T07:42:10.671Z,21.60
2019-05-18T07:44:39.392Z,22.30
2019-05-18T07:47:08.502Z,22.20
2019-05-18T07:49:37.702Z,22.80
2019-05-18T07:52:06.902Z,22.40
2019-05-18T07:54:35.997Z,22.00
2019-05-18T07:57:04.690Z,22.90
2019-05-18T07:59:33.564Z,23.10
2019-05-18T08:02:02.438Z,22.70
2019-05-18T08:04:31.360Z,22.10
2019-05-18T08:07:00.729Z,21.50
2019-05-18T08:09:29.515Z,21.20
2019-05-18T08:11:58.123Z,21.10
2019-05-18T08:14:26.995Z,21.00
2019-05-18T08:16:56.227Z,21.50
2019-05-18T08:19:25.122Z,22.20
2019-05-18T08:21:54.023Z,22.20
2019-05-18T08:24:22.906Z,21.50
2019-05-18T08:26:52.001Z,21.30
2019-05-18T08:29:20.893Z,21.30
2019-05-18T08:31:49.993Z,21.30
2019-05-18T08:34:19.291Z,21.50
2019-05-18T08:36:48.151Z,21.90
2019-05-18T08:39:17.490Z,21.90
2019-05-18T08:41:48.742Z,22.00
2019-05-18T08:44:17.085Z,21.40
2019-05-18T08:46:46.207Z,21.70
2019-05-18T08:49:15.030Z,21.80
2019-05-18T08:51:43.843Z,22.40
2019-05-18T08:54:12.631Z,23.20
2019-05-18T08:56:41.784Z,23.60
2019-05-18T08:59:12.768Z,23.20
2019-05-18T09:01:42.020Z,22.70
2019-05-18T09:04:11.079Z,23.30
2019-05-18T09:06:40.278Z,23.70
2019-05-18T09:09:09.060Z,23.60
2019-05-18T09:11:37.871Z,22.50
2019-05-18T09:14:07.141Z,22.00
2019-05-18T09:16:36.003Z,22.10
2019-05-18T09:19:04.790Z,22.30
2019-05-18T09:21:33.679Z,23.00
2019-05-18T09:24:02.656Z,23.10
2019-05-18T09:26:32.227Z,23.60
2019-05-18T09:29:01.057Z,24.10
2019-05-18T09:31:31.741Z,23.10
2019-05-18T09:34:00.688Z,22.20
2019-05-18T09:36:29.781Z,22.20
2019-05-18T09:38:59.285Z,22.80
2019-05-18T09:41:27.991Z,23.20
2019-05-18T09:43:57.067Z,22.60
2019-05-18T09:46:25.842Z,22.10
2019-05-18T09:48:54.821Z,22.40
2019-05-18T09:51:23.950Z,23.10
2019-05-18T09:53:53.014Z,22.60
2019-05-18T09:56:22.565Z,21.60
2019-05-18T09:58:51.366Z,21.30
2019-05-18T10:01:20.226Z,21.20
2019-05-18T10:03:49.101Z,21.60
2019-05-18T10:06:18.123Z,22.20
2019-05-18T10:08:48.822Z,21.90
2019-05-18T10:11:17.746Z,21.40
2019-05-18T10:13:46.841Z,21.20
2019-05-18T10:16:15.942Z,22.00
2019-05-18T10:18:45.037Z,22.70
2019-05-18T10:21:13.928Z,22.90
2019-05-18T10:23:42.657Z,22.60
2019-05-18T10:26:11.479Z,23.00
2019-05-18T10:28:40.400Z,23.50
2019-05-18T10:31:09.260Z,24.00
2019-05-18T10:33:38.182Z,23.30
2019-05-18T10:36:06.931Z,23.50
2019-05-18T10:38:35.699Z,23.80
2019-05-18T10:41:04.529Z,24.30
2019-05-18T10:43:33.565Z,23.90
2019-05-18T10:46:02.450Z,23.20
2019-05-18T10:48:31.286Z,22.10
2019-05-18T10:51:00.180Z,22.40
2019-05-18T10:53:29.290Z,23.30
2019-05-18T10:55:58.270Z,23.70
2019-05-18T10:58:26.998Z,24.10
2019-05-18T11:00:55.996Z,24.60
2019-05-18T11:03:24.689Z,24.60
2019-05-18T11:05:53.777Z,24.90
2019-05-18T11:08:23.894Z,24.60
2019-05-18T11:10:52.706Z,25.40
2019-05-18T11:13:21.557Z,25.20
2019-05-18T11:15:50.366Z,24.50
2019-05-18T11:18:19.331Z,24.00
2019-05-18T11:20:48.213Z,23.30
2019-05-18T11:23:17.005Z,23.40
2019-05-18T11:25:45.779Z,22.90
2019-05-18T11:28:14.693Z,22.60
2019-05-18T11:30:43.920Z,22.20
2019-05-18T11:33:13.018Z,22.70
2019-05-18T11:35:42.092Z,23.20
2019-05-18T11:38:10.979Z,23.30
2019-05-18T11:40:39.718Z,23.10
2019-05-18T11:43:08.521Z,23.40
2019-05-18T11:45:37.264Z,23.60
2019-05-18T11:48:06.108Z,24.20
2019-05-18T11:50:34.922Z,25.40
2019-05-18T11:53:03.819Z,25.10
2019-05-18T11:55:32.719Z,25.20
2019-05-18T11:58:01.476Z,24.90
2019-05-18T12:00:31.123Z,25.00
2019-05-18T12:02:59.996Z,25.50
2019-05-18T12:05:28.783Z,25.90
2019-05-18T12:07:57.560Z,25.80
2019-05-18T12:10:27.197Z,26.10
2019-05-18T12:12:55.920Z,26.80
2019-05-18T12:15:25.027Z,26.50
2019-05-18T12:17:54.301Z,26.70
2019-05-18T12:20:23.259Z,27.00
2019-05-18T12:22:52.451Z,27.20
2019-05-18T12:25:21.386Z,27.10
2019-05-18T12:27:50.268Z,27.00
2019-05-18T12:30:21.052Z,27.40
2019-05-18T12:32:50.091Z,27.40
2019-05-18T12:35:19.236Z,27.20
2019-05-18T12:37:48.205Z,26.60
2019-05-18T12:40:19.248Z,27.10
2019-05-18T12:42:48.133Z,27.40
2019-05-18T12:45:19.076Z,26.00
2019-05-18T12:47:47.965Z,25.00
2019-05-18T12:50:17.842Z,25.30
2019-05-18T12:52:47.180Z,25.70
2019-05-18T12:55:17.259Z,27.00
2019-05-18T12:57:46.399Z,26.60
2019-05-18T13:00:20.147Z,25.00
2019-05-18T13:02:49.492Z,24.90
2019-05-18T13:05:18.807Z,24.90
2019-05-18T13:07:47.700Z,24.20
2019-05-18T13:10:19.746Z,23.70
2019-05-18T13:12:49.173Z,23.50
2019-05-18T13:15:19.538Z,23.60
2019-05-18T13:17:48.626Z,24.00
2019-05-18T13:20:18.307Z,25.20
2019-05-18T13:22:48.237Z,25.40
2019-05-18T13:25:17.622Z,25.50
2019-05-18T13:27:46.616Z,26.10
2019-05-18T13:30:19.732Z,24.90
2019-05-18T13:32:47.474Z,24.10
2019-05-18T13:35:16.650Z,23.20
2019-05-18T13:37:45.387Z,22.70
2019-05-18T13:40:14.976Z,22.70
2019-05-18T13:42:44.143Z,23.00
2019-05-18T13:45:13.875Z,23.70
2019-05-18T13:47:42.871Z,24.60
2019-05-18T13:50:12.425Z,25.30
2019-05-18T13:52:41.478Z,25.30
2019-05-18T13:55:10.790Z,25.50
2019-05-18T13:57:39.872Z,26.10
2019-05-18T14:00:10.437Z,25.80
2019-05-18T14:02:39.618Z,25.10
2019-05-18T14:05:09.177Z,24.00
2019-05-18T14:07:38.275Z,23.30
2019-05-18T14:10:08.171Z,23.00
2019-05-18T14:12:37.146Z,23.00
2019-05-18T14:15:07.148Z,22.70
2019-05-18T14:17:35.974Z,23.00
2019-05-18T14:20:06.310Z,23.00
2019-05-18T14:22:35.227Z,22.70
2019-05-18T14:25:18.694Z,22.50
2019-05-18T14:27:39.080Z,22.60
2019-05-18T14:30:08.988Z,22.20
2019-05-18T14:32:38.697Z,22.10
2019-05-18T14:35:09.210Z,21.90
2019-05-18T14:37:38.325Z,22.10
2019-05-18T14:40:07.783Z,22.40
2019-05-18T14:42:36.652Z,22.60
2019-05-18T14:45:07.153Z,22.80
2019-05-18T14:47:36.728Z,22.70
2019-05-18T14:50:06.449Z,22.70
2019-05-18T14:52:35.212Z,22.70
2019-05-18T14:55:05.309Z,22.90
2019-05-18T14:57:34.135Z,23.00
2019-05-18T15:00:03.267Z,22.80
2019-05-18T15:02:32.118Z,22.60
2019-05-18T15:05:01.043Z,22.60
2019-05-18T15:07:29.849Z,22.70
2019-05-18T15:09:58.698Z,23.00
2019-05-18T15:12:27.641Z,23.20
2019-05-18T15:14:56.371Z,23.30
2019-05-18T15:17:25.134Z,23.70
2019-05-18T15:19:54.500Z,24.20
2019-05-18T15:22:23.396Z,24.30
2019-05-18T15:24:53.928Z,23.90
2019-05-18T15:27:24.638Z,24.20
2019-05-18T15:29:53.754Z,23.90
2019-05-18T15:32:22.698Z,23.80
2019-05-18T15:34:51.744Z,23.90
2019-05-18T15:37:20.841Z,24.20
2019-05-18T15:39:51.185Z,23.80
2019-05-18T15:42:22.558Z,23.30
2019-05-18T15:44:52.480Z,22.50
2019-05-18T15:47:23.028Z,22.10
2019-05-18T15:49:52.747Z,22.00
2019-05-18T15:52:21.655Z,22.00
2019-05-18T15:54:50.662Z,21.70
2019-05-18T15:57:20.712Z,21.60
2019-05-18T15:59:49.678Z,21.70
2019-05-18T16:02:18.568Z,21.80
2019-05-18T16:04:47.536Z,21.70
2019-05-18T16:07:18.208Z,21.70
2019-05-18T16:09:47.083Z,21.80
2019-05-18T16:12:16.050Z,21.80
2019-05-18T16:14:44.913Z,21.80
2019-05-18T16:17:13.756Z,21.80
2019-05-18T16:19:42.651Z,21.80
2019-05-18T16:22:11.516Z,21.80
2019-05-18T16:24:40.526Z,21.70
2019-05-18T16:27:09.330Z,21.70
2019-05-18T16:29:38.834Z,21.70
2019-05-18T16:32:07.937Z,21.70
2019-05-18T16:34:36.824Z,21.80
2019-05-18T16:37:05.647Z,21.90
2019-05-18T16:39:34.502Z,22.00
2019-05-18T16:42:03.352Z,22.00
2019-05-18T16:44:33.088Z,22.10
2019-05-18T16:47:01.903Z,22.20
2019-05-18T16:49:30.793Z,22.20
2019-05-18T16:51:59.655Z,22.20
2019-05-18T16:54:28.539Z,22.00
2019-05-18T16:56:57.669Z,21.90
2019-05-18T16:59:26.468Z,21.80
2019-05-18T17:01:55.539Z,21.90
2019-05-18T17:04:24.345Z,21.70
2019-05-18T17:06:53.216Z,21.50
2019-05-18T17:09:22.130Z,21.40
2019-05-18T17:11:51.031Z,21.30
2019-05-18T17:14:20.117Z,21.20
2019-05-18T17:16:48.989Z,21.20
2019-05-18T17:19:18.113Z,21.10
2019-05-18T17:21:47.409Z,21.00
2019-05-18T17:24:16.718Z,20.80
2019-05-18T17:26:52.797Z,20.70
2019-05-18T17:29:16.339Z,20.60
2019-05-18T17:31:45.442Z,20.50
2019-05-18T17:34:14.139Z,20.50
2019-05-18T17:36:42.988Z,20.40
2019-05-18T17:39:11.820Z,20.40
2019-05-18T17:41:40.675Z,20.30
2019-05-18T17:44:09.893Z,20.20
2019-05-18T17:46:38.654Z,20.20
2019-05-18T17:49:07.775Z,20.20
2019-05-18T17:51:36.658Z,20.10
2019-05-18T17:54:05.435Z,20.10
2019-05-18T17:56:34.232Z,20.00
2019-05-18T17:59:03.552Z,19.90
2019-05-18T18:01:32.303Z,19.80
2019-05-18T18:04:01.233Z,19.70
2019-05-18T18:06:30.329Z,19.50
2019-05-18T18:08:59.221Z,19.50
2019-05-18T18:11:28.272Z,19.40
2019-05-18T18:13:57.314Z,19.30
2019-05-18T18:16:26.205Z,19.20
2019-05-18T18:18:55.096Z,19.10
2019-05-18T18:21:23.969Z,19.00
2019-05-18T18:23:55.044Z,18.90
2019-05-18T18:26:23.437Z,18.70
2019-05-18T18:28:52.586Z,18.60
2019-05-18T18:31:21.606Z,18.50
2019-05-18T18:33:50.575Z,18.40
2019-05-18T18:36:19.591Z,18.20
2019-05-18T18:38:48.486Z,18.00
2019-05-18T18:41:17.863Z,17.80
2019-05-18T18:43:46.742Z,17.60
2019-05-18T18:46:15.596Z,17.40
2019-05-18T18:48:44.530Z,17.20
2019-05-18T18:51:14.543Z,17.00
2019-05-18T18:53:43.478Z,16.80
2019-05-18T18:56:12.350Z,16.40
2019-05-18T18:58:41.671Z,16.00
2019-05-18T19:01:10.770Z,15.60
2019-05-18T19:03:39.866Z,15.30
2019-05-18T19:06:08.829Z,15.00
2019-05-18T19:08:37.644Z,14.80
2019-05-18T19:11:06.368Z,14.60
2019-05-18T19:13:35.082Z,14.50
2019-05-18T19:16:03.900Z,14.40
2019-05-18T19:18:32.769Z,14.40
2019-05-18T19:21:01.930Z,14.30
2019-05-18T19:23:30.996Z,14.10
2019-05-18T19:25:59.889Z,13.90
2019-05-18T19:28:29.190Z,13.70
2019-05-18T19:30:58.085Z,13.50
2019-05-18T19:33:26.977Z,13.40
2019-05-18T19:35:55.849Z,13.40
2019-05-18T19:38:24.732Z,13.30
2019-05-18T19:40:54.136Z,13.20
2019-05-18T19:43:23.156Z,13.10
2019-05-18T19:45:51.886Z,13.10
2019-05-18T19:48:20.637Z,13.00
2019-05-18T19:50:49.531Z,12.80
2019-05-18T19:53:19.399Z,12.70
2019-05-18T19:55:48.337Z,12.60
2019-05-18T19:58:17.086Z,12.50
2019-05-18T20:00:46.117Z,12.50
2019-05-18T20:03:15.079Z,12.40
2019-05-18T20:05:44.695Z,12.30
2019-05-18T20:08:14.026Z,12.20
2019-05-18T20:10:43.535Z,12.10
2019-05-18T20:13:13.038Z,12.00
2019-05-18T20:15:42.007Z,11.90
2019-05-18T20:18:11.228Z,11.90
2019-05-18T20:20:40.025Z,11.80
2019-05-18T20:23:09.118Z,11.70
2019-05-18T20:25:37.900Z,11.60
2019-05-18T20:28:06.777Z,11.60
2019-05-18T20:30:35.622Z,11.50
2019-05-18T20:33:04.685Z,11.40
2019-05-18T20:35:33.446Z,11.40
2019-05-18T20:38:02.412Z,11.30
2019-05-18T20:40:31.565Z,11.30
2019-05-18T20:43:00.365Z,11.30
2019-05-18T20:45:29.355Z,11.20
2019-05-18T20:47:58.178Z,11.20
2019-05-18T20:50:27.141Z,11.10
2019-05-18T20:52:56.023Z,11.00
2019-05-18T20:55:24.895Z,11.00
2019-05-18T20:57:53.793Z,10.90
2019-05-18T21:00:23.012Z,11.00
2019-05-18T21:02:52.211Z,11.10
2019-05-18T21:05:21.100Z,11.10
2019-05-18T21:07:50.400Z,11.10
2019-05-18T21:10:19.500Z,11.10
2019-05-18T21:12:48.389Z,11.10
2019-05-18T21:15:17.791Z,11.00
2019-05-18T21:17:46.993Z,10.90
2019-05-18T21:20:15.853Z,10.80
2019-05-18T21:22:44.759Z,10.80
2019-05-18T21:25:14.649Z,10.70
2019-05-18T21:27:43.589Z,10.70
2019-05-18T21:30:12.955Z,10.60
2019-05-18T21:32:41.987Z,10.60
2019-05-18T21:35:10.916Z,10.60
2019-05-18T21:37:39.778Z,10.70
2019-05-18T21:40:09.127Z,10.80
2019-05-18T21:42:38.375Z,10.70
2019-05-18T21:45:07.683Z,10.70
2019-05-18T21:47:36.644Z,10.70
2019-05-18T21:50:08.135Z,10.80
2019-05-18T21:52:37.218Z,10.90
2019-05-18T21:55:07.185Z,11.00
2019-05-18T21:57:36.017Z,11.10
2019-05-18T22:00:06.340Z,11.20
2019-05-18T22:02:35.250Z,11.20
2019-05-18T22:05:04.482Z,11.20
2019-05-18T22:07:33.427Z,11.10
2019-05-18T22:10:02.578Z,11.00
2019-05-18T22:12:32.036Z,11.10
2019-05-18T22:15:00.905Z,11.00
2019-05-18T22:17:30.033Z,11.00
2019-05-18T22:19:58.919Z,11.00
2019-05-18T22:22:27.808Z,11.10
2019-05-18T22:24:56.701Z,11.20
2019-05-18T22:27:26.006Z,11.10
2019-05-18T22:29:54.896Z,11.00
2019-05-18T22:32:24.348Z,10.80
2019-05-18T22:34:53.705Z,10.60
2019-05-18T22:37:22.596Z,10.60
2019-05-18T22:39:51.690Z,10.50
2019-05-18T22:42:20.403Z,10.40
2019-05-18T22:44:49.372Z,10.50
2019-05-18T22:47:18.356Z,10.70
2019-05-18T22:49:47.083Z,10.80
2019-05-18T22:52:16.049Z,10.80
2019-05-18T22:54:44.969Z,10.80
2019-05-18T22:57:14.451Z,10.80
2019-05-18T22:59:43.296Z,10.70
2019-05-18T23:02:12.230Z,10.70
2019-05-18T23:04:41.017Z,10.70
2019-05-18T23:07:09.846Z,10.60
2019-05-18T23:09:38.644Z,10.50
2019-05-18T23:12:07.601Z,10.30
2019-05-18T23:14:36.716Z,10.10
2019-05-18T23:17:05.634Z,9.90
2019-05-18T23:19:34.300Z,9.70
2019-05-18T23:22:03.365Z,9.70
2019-05-18T23:24:32.260Z,9.70
2019-05-18T23:27:02.089Z,9.70
2019-05-18T23:29:31.272Z,9.60
2019-05-18T23:32:00.141Z,9.50
2019-05-18T23:34:28.912Z,9.30
2019-05-18T23:36:58.562Z,9.20
2019-05-18T23:39:27.452Z,9.10
2019-05-18T23:41:56.757Z,9.10
2019-05-18T23:44:25.512Z,8.90
2019-05-18T23:46:55.612Z,8.90
2019-05-18T23:49:24.637Z,8.90
2019-05-18T23:51:53.556Z,9.10
2019-05-18T23:54:22.302Z,9.10
2019-05-18T23:56:51.336Z,9.00
2019-05-18T23:59:20.845Z,8.80
